sensor_id;sensor_type;location;lat;lon;timestamp;P1;P2;P0
71858;PMS5003;59713;50.866;4.324;2023-04-01T00:00:31;5;2;
71858;PMS5003;59713;50.866;4.324;2023-04-01T00:01:30;5;2;
71858;PMS5003;59713;50.866;4.324;2023-04-01T00:02:30;5;2;
71858;PMS5003;59713;50.866;4.324;2023-04-01T00:02:30;5;2;
71858;PMS5003;59713;50.866;4.324;2023-04-01T00:03:30;4;2;
71858;PMS5003;59713;50.866;4.324;2023-04-01T00:04:30;4;2;
71858;PMS5003;59713;50.866;4.324;2023-04-01T00:05:30;4;2;
71858;PMS5003;59713;50.866;4.324;2023-04-01T00:06:30;7;4;
71858;PMS5003;59713;50.866;4.324;2023-04-01T00:07:30;7;4;
71858;PMS5003;59713;50.866;4.324;2023-04-01T00:08:30;7;4;
71858;PMS5003;59713;50.866;4.324;2023-04-01T00:09:30;6;4;
71858;PMS5003;59713;50.866;4.324;2023-04-01T00:10:30;6;4;
71858;PMS5003;59713;50.866;4.324;2023-04-01T00:11:30;6;4;
71858;PMS5003;59713;50.866;4.324;2023-04-01T00:11:30;6;4;
71858;PMS5003;59713;50.866;4.324;2023-04-01T00:12:30;3;3;
71858;PMS5003;59713;50.866;4.324;2023-04-01T00:13:30;3;3;
71858;PMS5003;59713;50.866;4.324;2023-04-01T00:14:30;3;3;
71858;PMS5003;59713;50.866;4.324;2023-04-01T00:15:30;2;2;
71858;PMS5003;59713;50.866;4.324;2023-04-01T00:16:32;2;2;
71858;PMS5003;59713;50.866;4.324;2023-04-01T00:17:30;2;2;
71858;PMS5003;59713;50.866;4.324;2023-04-01T00:18:30;2;2;
71858;PMS5003;59713;50.866;4.324;2023-04-01T00:19:32;2;2;
71858;PMS5003;59713;50.866;4.324;2023-04-01T00:20:30;2;2;
71858;PMS5003;59713;50.866;4.324;2023-04-01T00:21:30;5;1;
71858;PMS5003;59713;50.866;4.324;2023-04-01T00:21:30;5;1;
71858;PMS5003;59713;50.866;4.324;2023-04-01T00:22:30;5;1;
71858;PMS5003;59713;50.866;4.324;2023-04-01T00:23:30;5;1;
71858;PMS5003;59713;50.866;4.324;2023-04-01T00:24:30;4;2;
71858;PMS5003;59713;50.866;4.324;2023-04-01T00:25:30;4;2;
71858;PMS5003;59713;50.866;4.324;2023-04-01T00:26:30;4;2;
71858;PMS5003;59713;50.866;4.324;2023-04-01T00:27:30;4;4;
71858;PMS5003;59713;50.866;4.324;2023-04-01T00:28:30;4;4;
71858;PMS5003;59713;50.866;4.324;2023-04-01T00:29:30;4;4;
71858;PMS5003;59713;50.866;4.324;2023-04-01T00:30:30;2;2;
71858;PMS5003;59713;50.866;4.324;2023-04-01T00:30:30;2;2;
71858;PMS5003;59713;50.866;4.324;2023-04-01T00:31:30;2;2;
71858;PMS5003;59713;50.866;4.324;2023-04-01T00:32:30;2;2;
71858;PMS5003;59713;50.866;4.324;2023-04-01T00:33:30;1;1;
71858;PMS5003;59713;50.866;4.324;2023-04-01T00:34:30;1;1;
71858;PMS5003;59713;50.866;4.324;2023-04-01T00:35:30;1;1;
71858;PMS5003;59713;50.866;4.324;2023-04-01T00:36:30;2;1;
71858;PMS5003;59713;50.866;4.324;2023-04-01T00:37:30;2;1;
71858;PMS5003;59713;50.866;4.324;2023-04-01T00:38:30;2;1;
71858;PMS5003;59713;50.866;4.324;2023-04-01T00:39:31;4;2;
71858;PMS5003;59713;50.866;4.324;2023-04-01T00:40:31;4;2;
71858;PMS5003;59713;50.866;4.324;2023-04-01T00:40:31;4;2;
71858;PMS5003;59713;50.866;4.324;2023-04-01T00:41:30;4;2;
71858;PMS5003;59713;50.866;4.324;2023-04-01T00:42:31;4;3;
71858;PMS5003;59713;50.866;4.324;2023-04-01T00:43:30;4;3;
71858;PMS5003;59713;50.866;4.324;2023-04-01T00:44:33;4;3;
71858;PMS5003;59713;50.866;4.324;2023-04-01T00:45:32;3;1;
71858;PMS5003;59713;50.866;4.324;2023-04-01T00:46:30;3;1;
71858;PMS5003;59713;50.866;4.324;2023-04-01T00:47:30;3;1;
71858;PMS5003;59713;50.866;4.324;2023-04-01T00:48:31;1;1;
71858;PMS5003;59713;50.866;4.324;2023-04-01T00:49:31;1;1;
71858;PMS5003;59713;50.866;4.324;2023-04-01T00:49:31;1;1;
71858;PMS5003;59713;50.866;4.324;2023-04-01T00:50:30;1;1;
71858;PMS5003;59713;50.866;4.324;2023-04-01T00:51:30;1;1;
71858;PMS5003;59713;50.866;4.324;2023-04-01T00:52:30;1;1;
71858;PMS5003;59713;50.866;4.324;2023-04-01T00:53:31;1;1;
71858;PMS5003;59713;50.866;4.324;2023-04-01T00:54:31;0;0;
71858;PMS5003;59713;50.866;4.324;2023-04-01T00:55:32;0;0;
71858;PMS5003;59713;50.866;4.324;2023-04-01T00:56:31;0;0;
71858;PMS5003;59713;50.866;4.324;2023-04-01T00:57:31;2;2;
71858;PMS5003;59713;50.866;4.324;2023-04-01T00:58:31;2;2;
71858;PMS5003;59713;50.866;4.324;2023-04-01T00:58:31;2;2;
71858;PMS5003;59713;50.866;4.324;2023-04-01T00:59:31;2;2;
71858;PMS5003;59713;50.866;4.324;2023-04-01T01:00:30;1;1;
71858;PMS5003;59713;50.866;4.324;2023-04-01T01:01:30;1;1;
71858;PMS5003;59713;50.866;4.324;2023-04-01T01:02:30;1;1;
71858;PMS5003;59713;50.866;4.324;2023-04-01T01:03:30;2;1;
71858;PMS5003;59713;50.866;4.324;2023-04-01T01:04:31;2;1;
71858;PMS5003;59713;50.866;4.324;2023-04-01T01:05:33;2;1;
71858;PMS5003;59713;50.866;4.324;2023-04-01T01:06:34;0;0;
71858;PMS5003;59713;50.866;4.324;2023-04-01T01:07:31;0;0;
71858;PMS5003;59713;50.866;4.324;2023-04-01T01:08:33;0;0;
71858;PMS5003;59713;50.866;4.324;2023-04-01T01:08:33;0;0;
71858;PMS5003;59713;50.866;4.324;2023-04-01T01:09:33;0;0;
71858;PMS5003;59713;50.866;4.324;2023-04-01T01:10:31;0;0;
71858;PMS5003;59713;50.866;4.324;2023-04-01T01:11:32;0;0;
71858;PMS5003;59713;50.866;4.324;2023-04-01T01:12:31;0;0;
71858;PMS5003;59713;50.866;4.324;2023-04-01T01:13:31;0;0;
71858;PMS5003;59713;50.866;4.324;2023-04-01T01:14:34;0;0;
71858;PMS5003;59713;50.866;4.324;2023-04-01T01:15:32;1;0;
71858;PMS5003;59713;50.866;4.324;2023-04-01T01:16:31;1;0;
71858;PMS5003;59713;50.866;4.324;2023-04-01T01:17:32;1;0;
71858;PMS5003;59713;50.866;4.324;2023-04-01T01:17:33;1;0;
71858;PMS5003;59713;50.866;4.324;2023-04-01T01:18:32;1;1;
71858;PMS5003;59713;50.866;4.324;2023-04-01T01:19:40;1;1;
71858;PMS5003;59713;50.866;4.324;2023-04-01T01:20:33;1;1;
71858;PMS5003;59713;50.866;4.324;2023-04-01T01:21:32;1;1;
71858;PMS5003;59713;50.866;4.324;2023-04-01T01:22:33;1;1;
71858;PMS5003;59713;50.866;4.324;2023-04-01T01:23:36;1;1;
71858;PMS5003;59713;50.866;4.324;2023-04-01T01:24:38;1;1;
71858;PMS5003;59713;50.866;4.324;2023-04-01T01:25:32;1;1;
71858;PMS5003;59713;50.866;4.324;2023-04-01T01:26:37;1;1;
71858;PMS5003;59713;50.866;4.324;2023-04-01T01:26:37;1;1;
71858;PMS5003;59713;50.866;4.324;2023-04-01T01:27:30;2;1;
71858;PMS5003;59713;50.866;4.324;2023-04-01T01:28:34;2;1;
71858;PMS5003;59713;50.866;4.324;2023-04-01T01:29:45;2;1;
71858;PMS5003;59713;50.866;4.324;2023-04-01T01:30:35;1;1;
71858;PMS5003;59713;50.866;4.324;2023-04-01T01:31:31;1;1;
71858;PMS5003;59713;50.866;4.324;2023-04-01T01:32:36;1;1;
71858;PMS5003;59713;50.866;4.324;2023-04-01T01:33:47;0;0;
71858;PMS5003;59713;50.866;4.324;2023-04-01T01:34:31;0;0;
71858;PMS5003;59713;50.866;4.324;2023-04-01T01:35:31;0;0;
71858;PMS5003;59713;50.866;4.324;2023-04-01T01:35:31;0;0;
71858;PMS5003;59713;50.866;4.324;2023-04-01T01:36:31;1;1;
71858;PMS5003;59713;50.866;4.324;2023-04-01T01:37:30;1;1;
71858;PMS5003;59713;50.866;4.324;2023-04-01T01:38:32;1;1;
71858;PMS5003;59713;50.866;4.324;2023-04-01T01:39:32;1;1;
71858;PMS5003;59713;50.866;4.324;2023-04-01T01:40:31;1;1;
71858;PMS5003;59713;50.866;4.324;2023-04-01T01:41:30;1;1;
71858;PMS5003;59713;50.866;4.324;2023-04-01T01:42:31;1;1;
71858;PMS5003;59713;50.866;4.324;2023-04-01T01:43:31;1;1;
71858;PMS5003;59713;50.866;4.324;2023-04-01T01:44:30;1;1;
71858;PMS5003;59713;50.866;4.324;2023-04-01T01:44:30;1;1;
71858;PMS5003;59713;50.866;4.324;2023-04-01T01:45:33;3;2;
71858;PMS5003;59713;50.866;4.324;2023-04-01T01:46:31;3;2;
71858;PMS5003;59713;50.866;4.324;2023-04-01T01:47:31;3;2;
71858;PMS5003;59713;50.866;4.324;2023-04-01T01:48:31;3;1;
71858;PMS5003;59713;50.866;4.324;2023-04-01T01:49:31;3;1;
71858;PMS5003;59713;50.866;4.324;2023-04-01T01:50:30;3;1;
71858;PMS5003;59713;50.866;4.324;2023-04-01T01:51:30;5;3;
71858;PMS5003;59713;50.866;4.324;2023-04-01T01:52:31;5;3;
71858;PMS5003;59713;50.866;4.324;2023-04-01T01:53:30;5;3;
71858;PMS5003;59713;50.866;4.324;2023-04-01T01:53:30;5;3;
71858;PMS5003;59713;50.866;4.324;2023-04-01T01:54:30;2;2;
71858;PMS5003;59713;50.866;4.324;2023-04-01T01:55:32;2;2;
71858;PMS5003;59713;50.866;4.324;2023-04-01T01:56:30;2;2;
71858;PMS5003;59713;50.866;4.324;2023-04-01T01:57:31;4;3;
71858;PMS5003;59713;50.866;4.324;2023-04-01T01:58:32;4;3;
71858;PMS5003;59713;50.866;4.324;2023-04-01T01:59:30;4;3;
71858;PMS5003;59713;50.866;4.324;2023-04-01T02:00:30;5;5;
71858;PMS5003;59713;50.866;4.324;2023-04-01T02:01:31;5;5;
71858;PMS5003;59713;50.866;4.324;2023-04-01T02:02:31;5;5;
71858;PMS5003;59713;50.866;4.324;2023-04-01T02:02:31;5;5;
71858;PMS5003;59713;50.866;4.324;2023-04-01T02:03:31;5;5;
71858;PMS5003;59713;50.866;4.324;2023-04-01T02:04:30;5;5;
71858;PMS5003;59713;50.866;4.324;2023-04-01T02:05:30;5;5;
71858;PMS5003;59713;50.866;4.324;2023-04-01T02:06:32;4;4;
71858;PMS5003;59713;50.866;4.324;2023-04-01T02:07:31;4;4;
71858;PMS5003;59713;50.866;4.324;2023-04-01T02:08:31;4;4;
71858;PMS5003;59713;50.866;4.324;2023-04-01T02:09:31;6;4;
71858;PMS5003;59713;50.866;4.324;2023-04-01T02:10:31;6;4;
71858;PMS5003;59713;50.866;4.324;2023-04-01T02:11:32;6;4;
71858;PMS5003;59713;50.866;4.324;2023-04-01T02:11:32;6;4;
71858;PMS5003;59713;50.866;4.324;2023-04-01T02:12:31;3;3;
71858;PMS5003;59713;50.866;4.324;2023-04-01T02:13:32;3;3;
71858;PMS5003;59713;50.866;4.324;2023-04-01T02:14:32;3;3;
71858;PMS5003;59713;50.866;4.324;2023-04-01T02:15:31;2;1;
71858;PMS5003;59713;50.866;4.324;2023-04-01T02:16:32;2;1;
71858;PMS5003;59713;50.866;4.324;2023-04-01T02:17:31;2;1;
71858;PMS5003;59713;50.866;4.324;2023-04-01T02:18:31;5;2;
71858;PMS5003;59713;50.866;4.324;2023-04-01T02:19:31;5;2;
71858;PMS5003;59713;50.866;4.324;2023-04-01T02:20:31;5;2;
71858;PMS5003;59713;50.866;4.324;2023-04-01T02:20:31;5;2;
71858;PMS5003;59713;50.866;4.324;2023-04-01T02:21:31;7;2;
71858;PMS5003;59713;50.866;4.324;2023-04-01T02:22:31;7;2;
71858;PMS5003;59713;50.866;4.324;2023-04-01T02:23:31;7;2;
71858;PMS5003;59713;50.866;4.324;2023-04-01T02:24:31;7;5;
71858;PMS5003;59713;50.866;4.324;2023-04-01T02:25:33;7;5;
71858;PMS5003;59713;50.866;4.324;2023-04-01T02:26:31;7;5;
71858;PMS5003;59713;50.866;4.324;2023-04-01T02:27:31;7;4;
71858;PMS5003;59713;50.866;4.324;2023-04-01T02:28:31;7;4;
71858;PMS5003;59713;50.866;4.324;2023-04-01T02:29:31;7;4;
71858;PMS5003;59713;50.866;4.324;2023-04-01T02:29:31;7;4;
71858;PMS5003;59713;50.866;4.324;2023-04-01T02:30:31;5;5;
71858;PMS5003;59713;50.866;4.324;2023-04-01T02:31:31;5;5;
71858;PMS5003;59713;50.866;4.324;2023-04-01T02:32:31;5;5;
71858;PMS5003;59713;50.866;4.324;2023-04-01T02:33:31;5;4;
71858;PMS5003;59713;50.866;4.324;2023-04-01T02:34:31;5;4;
71858;PMS5003;59713;50.866;4.324;2023-04-01T02:35:32;5;4;
71858;PMS5003;59713;50.866;4.324;2023-04-01T02:36:31;5;2;
71858;PMS5003;59713;50.866;4.324;2023-04-01T02:37:31;5;2;
71858;PMS5003;59713;50.866;4.324;2023-04-01T02:38:31;5;2;
71858;PMS5003;59713;50.866;4.324;2023-04-01T02:38:31;5;2;
71858;PMS5003;59713;50.866;4.324;2023-04-01T02:39:31;4;3;
71858;PMS5003;59713;50.866;4.324;2023-04-01T02:40:40;4;3;
71858;PMS5003;59713;50.866;4.324;2023-04-01T02:41:31;4;3;
71858;PMS5003;59713;50.866;4.324;2023-04-01T02:42:31;3;3;
71858;PMS5003;59713;50.866;4.324;2023-04-01T02:43:31;3;3;
71858;PMS5003;59713;50.866;4.324;2023-04-01T02:44:31;3;3;
71858;PMS5003;59713;50.866;4.324;2023-04-01T02:45:32;3;3;
71858;PMS5003;59713;50.866;4.324;2023-04-01T02:46:31;3;3;
71858;PMS5003;59713;50.866;4.324;2023-04-01T02:47:31;3;3;
71858;PMS5003;59713;50.866;4.324;2023-04-01T02:47:31;3;3;
71858;PMS5003;59713;50.866;4.324;2023-04-01T02:48:31;3;3;
71858;PMS5003;59713;50.866;4.324;2023-04-01T02:49:31;3;3;
71858;PMS5003;59713;50.866;4.324;2023-04-01T02:50:31;3;3;
71858;PMS5003;59713;50.866;4.324;2023-04-01T02:51:31;4;3;
71858;PMS5003;59713;50.866;4.324;2023-04-01T02:52:31;4;3;
71858;PMS5003;59713;50.866;4.324;2023-04-01T02:53:31;4;3;
71858;PMS5003;59713;50.866;4.324;2023-04-01T02:54:31;6;3;
71858;PMS5003;59713;50.866;4.324;2023-04-01T02:55:31;6;3;
71858;PMS5003;59713;50.866;4.324;2023-04-01T02:56:31;6;3;
71858;PMS5003;59713;50.866;4.324;2023-04-01T02:56:31;6;3;
71858;PMS5003;59713;50.866;4.324;2023-04-01T02:57:31;2;2;
71858;PMS5003;59713;50.866;4.324;2023-04-01T02:58:31;2;2;
71858;PMS5003;59713;50.866;4.324;2023-04-01T02:59:31;2;2;
71858;PMS5003;59713;50.866;4.324;2023-04-01T03:00:31;3;3;
71858;PMS5003;59713;50.866;4.324;2023-04-01T03:01:31;3;3;
71858;PMS5003;59713;50.866;4.324;2023-04-01T03:02:31;3;3;
71858;PMS5003;59713;50.866;4.324;2023-04-01T03:03:31;6;2;
71858;PMS5003;59713;50.866;4.324;2023-04-01T03:04:31;6;2;
71858;PMS5003;59713;50.866;4.324;2023-04-01T03:05:31;6;2;
71858;PMS5003;59713;50.866;4.324;2023-04-01T03:05:31;6;2;
71858;PMS5003;59713;50.866;4.324;2023-04-01T03:06:31;5;3;
71858;PMS5003;59713;50.866;4.324;2023-04-01T03:07:31;5;3;
71858;PMS5003;59713;50.866;4.324;2023-04-01T03:08:31;5;3;
71858;PMS5003;59713;50.866;4.324;2023-04-01T03:09:31;3;3;
71858;PMS5003;59713;50.866;4.324;2023-04-01T03:10:31;3;3;
71858;PMS5003;59713;50.866;4.324;2023-04-01T03:11:31;3;3;
71858;PMS5003;59713;50.866;4.324;2023-04-01T03:12:31;2;2;
71858;PMS5003;59713;50.866;4.324;2023-04-01T03:13:31;2;2;
71858;PMS5003;59713;50.866;4.324;2023-04-01T03:14:31;2;2;
71858;PMS5003;59713;50.866;4.324;2023-04-01T03:14:31;2;2;
71858;PMS5003;59713;50.866;4.324;2023-04-01T03:15:31;4;2;
71858;PMS5003;59713;50.866;4.324;2023-04-01T03:16:31;4;2;
71858;PMS5003;59713;50.866;4.324;2023-04-01T03:17:31;4;2;
71858;PMS5003;59713;50.866;4.324;2023-04-01T03:18:31;6;4;
71858;PMS5003;59713;50.866;4.324;2023-04-01T03:19:31;6;4;
71858;PMS5003;59713;50.866;4.324;2023-04-01T03:20:31;6;4;
71858;PMS5003;59713;50.866;4.324;2023-04-01T03:21:31;5;5;
71858;PMS5003;59713;50.866;4.324;2023-04-01T03:22:31;5;5;
71858;PMS5003;59713;50.866;4.324;2023-04-01T03:23:31;5;5;
71858;PMS5003;59713;50.866;4.324;2023-04-01T03:23:31;5;5;
71858;PMS5003;59713;50.866;4.324;2023-04-01T03:24:31;6;4;
71858;PMS5003;59713;50.866;4.324;2023-04-01T03:25:31;6;4;
71858;PMS5003;59713;50.866;4.324;2023-04-01T03:26:31;6;4;
71858;PMS5003;59713;50.866;4.324;2023-04-01T03:27:31;5;5;
71858;PMS5003;59713;50.866;4.324;2023-04-01T03:28:31;5;5;
71858;PMS5003;59713;50.866;4.324;2023-04-01T03:29:31;5;5;
71858;PMS5003;59713;50.866;4.324;2023-04-01T03:30:31;7;5;
71858;PMS5003;59713;50.866;4.324;2023-04-01T03:31:31;7;5;
71858;PMS5003;59713;50.866;4.324;2023-04-01T03:32:31;7;5;
71858;PMS5003;59713;50.866;4.324;2023-04-01T03:33:31;5;5;
71858;PMS5003;59713;50.866;4.324;2023-04-01T03:33:31;5;5;
71858;PMS5003;59713;50.866;4.324;2023-04-01T03:34:31;5;5;
71858;PMS5003;59713;50.866;4.324;2023-04-01T03:35:31;5;5;
71858;PMS5003;59713;50.866;4.324;2023-04-01T03:36:31;5;4;
71858;PMS5003;59713;50.866;4.324;2023-04-01T03:37:31;5;4;
71858;PMS5003;59713;50.866;4.324;2023-04-01T03:38:31;5;4;
71858;PMS5003;59713;50.866;4.324;2023-04-01T03:39:31;5;4;
71858;PMS5003;59713;50.866;4.324;2023-04-01T03:40:31;5;4;
71858;PMS5003;59713;50.866;4.324;2023-04-01T03:41:31;5;4;
71858;PMS5003;59713;50.866;4.324;2023-04-01T03:42:31;15;14;
71858;PMS5003;59713;50.866;4.324;2023-04-01T03:42:31;15;14;
71858;PMS5003;59713;50.866;4.324;2023-04-01T03:43:31;15;14;
71858;PMS5003;59713;50.866;4.324;2023-04-01T03:44:31;15;14;
71858;PMS5003;59713;50.866;4.324;2023-04-01T03:45:31;6;6;
71858;PMS5003;59713;50.866;4.324;2023-04-01T03:46:31;6;6;
71858;PMS5003;59713;50.866;4.324;2023-04-01T03:47:31;6;6;
71858;PMS5003;59713;50.866;4.324;2023-04-01T03:48:31;6;6;
71858;PMS5003;59713;50.866;4.324;2023-04-01T03:49:31;6;6;
71858;PMS5003;59713;50.866;4.324;2023-04-01T03:50:31;6;6;
71858;PMS5003;59713;50.866;4.324;2023-04-01T03:51:31;6;6;
71858;PMS5003;59713;50.866;4.324;2023-04-01T03:51:31;6;6;
71858;PMS5003;59713;50.866;4.324;2023-04-01T03:52:31;6;6;
71858;PMS5003;59713;50.866;4.324;2023-04-01T03:53:31;6;6;
71858;PMS5003;59713;50.866;4.324;2023-04-01T03:54:31;7;6;
71858;PMS5003;59713;50.866;4.324;2023-04-01T03:55:31;7;6;
71858;PMS5003;59713;50.866;4.324;2023-04-01T03:56:31;7;6;
71858;PMS5003;59713;50.866;4.324;2023-04-01T03:57:31;6;3;
71858;PMS5003;59713;50.866;4.324;2023-04-01T03:58:31;6;3;
71858;PMS5003;59713;50.866;4.324;2023-04-01T03:59:31;6;3;
71858;PMS5003;59713;50.866;4.324;2023-04-01T04:00:31;10;7;
71858;PMS5003;59713;50.866;4.324;2023-04-01T04:01:31;10;7;
71858;PMS5003;59713;50.866;4.324;2023-04-01T04:01:31;10;7;
71858;PMS5003;59713;50.866;4.324;2023-04-01T04:02:31;10;7;
71858;PMS5003;59713;50.866;4.324;2023-04-01T04:03:31;8;5;
71858;PMS5003;59713;50.866;4.324;2023-04-01T04:04:31;8;5;
71858;PMS5003;59713;50.866;4.324;2023-04-01T04:05:31;8;5;
71858;PMS5003;59713;50.866;4.324;2023-04-01T04:06:31;9;6;
71858;PMS5003;59713;50.866;4.324;2023-04-01T04:07:31;9;6;
71858;PMS5003;59713;50.866;4.324;2023-04-01T04:08:31;9;6;
71858;PMS5003;59713;50.866;4.324;2023-04-01T04:09:31;8;7;
71858;PMS5003;59713;50.866;4.324;2023-04-01T04:10:31;8;7;
71858;PMS5003;59713;50.866;4.324;2023-04-01T04:10:31;8;7;
71858;PMS5003;59713;50.866;4.324;2023-04-01T04:11:31;8;7;
71858;PMS5003;59713;50.866;4.324;2023-04-01T04:12:31;6;6;
71858;PMS5003;59713;50.866;4.324;2023-04-01T04:13:31;6;6;
71858;PMS5003;59713;50.866;4.324;2023-04-01T04:14:31;6;6;
71858;PMS5003;59713;50.866;4.324;2023-04-01T04:15:31;4;4;
71858;PMS5003;59713;50.866;4.324;2023-04-01T04:16:31;4;4;
71858;PMS5003;59713;50.866;4.324;2023-04-01T04:17:31;4;4;
71858;PMS5003;59713;50.866;4.324;2023-04-01T04:18:31;6;6;
71858;PMS5003;59713;50.866;4.324;2023-04-01T04:19:31;6;6;
71858;PMS5003;59713;50.866;4.324;2023-04-01T04:19:31;6;6;
71858;PMS5003;59713;50.866;4.324;2023-04-01T04:20:31;6;6;
71858;PMS5003;59713;50.866;4.324;2023-04-01T04:21:31;9;5;
71858;PMS5003;59713;50.866;4.324;2023-04-01T04:22:31;9;5;
71858;PMS5003;59713;50.866;4.324;2023-04-01T04:23:31;9;5;
71858;PMS5003;59713;50.866;4.324;2023-04-01T04:24:31;7;5;
71858;PMS5003;59713;50.866;4.324;2023-04-01T04:25:31;7;5;
71858;PMS5003;59713;50.866;4.324;2023-04-01T04:26:31;7;5;
71858;PMS5003;59713;50.866;4.324;2023-04-01T04:27:31;6;6;
71858;PMS5003;59713;50.866;4.324;2023-04-01T04:28:31;6;6;
71858;PMS5003;59713;50.866;4.324;2023-04-01T04:28:31;6;6;
71858;PMS5003;59713;50.866;4.324;2023-04-01T04:29:31;6;6;
71858;PMS5003;59713;50.866;4.324;2023-04-01T04:30:31;8;4;
71858;PMS5003;59713;50.866;4.324;2023-04-01T04:31:31;8;4;
71858;PMS5003;59713;50.866;4.324;2023-04-01T04:32:31;8;4;
71858;PMS5003;59713;50.866;4.324;2023-04-01T04:33:31;8;5;
71858;PMS5003;59713;50.866;4.324;2023-04-01T04:34:31;8;5;
71858;PMS5003;59713;50.866;4.324;2023-04-01T04:35:31;8;5;
71858;PMS5003;59713;50.866;4.324;2023-04-01T04:36:31;5;4;
71858;PMS5003;59713;50.866;4.324;2023-04-01T04:37:31;5;4;
71858;PMS5003;59713;50.866;4.324;2023-04-01T04:38:31;5;4;
71858;PMS5003;59713;50.866;4.324;2023-04-01T04:39:31;5;3;
71858;PMS5003;59713;50.866;4.324;2023-04-01T04:40:31;5;3;
71858;PMS5003;59713;50.866;4.324;2023-04-01T04:41:32;5;3;
71858;PMS5003;59713;50.866;4.324;2023-04-01T04:42:31;4;4;
71858;PMS5003;59713;50.866;4.324;2023-04-01T04:43:31;4;4;
71858;PMS5003;59713;50.866;4.324;2023-04-01T04:44:31;4;4;
71858;PMS5003;59713;50.866;4.324;2023-04-01T04:45:31;7;4;
71858;PMS5003;59713;50.866;4.324;2023-04-01T04:46:31;7;4;
71858;PMS5003;59713;50.866;4.324;2023-04-01T04:46:31;7;4;
71858;PMS5003;59713;50.866;4.324;2023-04-01T04:47:31;7;4;
71858;PMS5003;59713;50.866;4.324;2023-04-01T04:48:31;6;5;
71858;PMS5003;59713;50.866;4.324;2023-04-01T04:49:31;6;5;
71858;PMS5003;59713;50.866;4.324;2023-04-01T04:50:31;6;5;
71858;PMS5003;59713;50.866;4.324;2023-04-01T04:51:31;4;3;
71858;PMS5003;59713;50.866;4.324;2023-04-01T04:52:31;4;3;
71858;PMS5003;59713;50.866;4.324;2023-04-01T04:53:31;4;3;
71858;PMS5003;59713;50.866;4.324;2023-04-01T04:54:31;2;2;
71858;PMS5003;59713;50.866;4.324;2023-04-01T04:55:31;2;2;
71858;PMS5003;59713;50.866;4.324;2023-04-01T04:56:31;2;2;
71858;PMS5003;59713;50.866;4.324;2023-04-01T04:56:31;2;2;
71858;PMS5003;59713;50.866;4.324;2023-04-01T04:57:31;3;3;
71858;PMS5003;59713;50.866;4.324;2023-04-01T04:58:32;3;3;
71858;PMS5003;59713;50.866;4.324;2023-04-01T04:59:31;3;3;
71858;PMS5003;59713;50.866;4.324;2023-04-01T05:00:31;3;3;
71858;PMS5003;59713;50.866;4.324;2023-04-01T05:01:31;3;3;
71858;PMS5003;59713;50.866;4.324;2023-04-01T05:02:31;3;3;
71858;PMS5003;59713;50.866;4.324;2023-04-01T05:03:31;2;2;
71858;PMS5003;59713;50.866;4.324;2023-04-01T05:04:33;2;2;
71858;PMS5003;59713;50.866;4.324;2023-04-01T05:05:31;2;2;
71858;PMS5003;59713;50.866;4.324;2023-04-01T05:05:31;2;2;
71858;PMS5003;59713;50.866;4.324;2023-04-01T05:06:31;4;4;
71858;PMS5003;59713;50.866;4.324;2023-04-01T05:07:31;4;4;
71858;PMS5003;59713;50.866;4.324;2023-04-01T05:08:31;4;4;
71858;PMS5003;59713;50.866;4.324;2023-04-01T05:09:31;6;3;
71858;PMS5003;59713;50.866;4.324;2023-04-01T05:10:31;6;3;
71858;PMS5003;59713;50.866;4.324;2023-04-01T05:11:31;6;3;
71858;PMS5003;59713;50.866;4.324;2023-04-01T05:12:31;3;3;
71858;PMS5003;59713;50.866;4.324;2023-04-01T05:13:31;3;3;
71858;PMS5003;59713;50.866;4.324;2023-04-01T05:14:31;3;3;
71858;PMS5003;59713;50.866;4.324;2023-04-01T05:14:31;3;3;
71858;PMS5003;59713;50.866;4.324;2023-04-01T05:15:31;3;3;
71858;PMS5003;59713;50.866;4.324;2023-04-01T05:16:31;3;3;
71858;PMS5003;59713;50.866;4.324;2023-04-01T05:17:31;3;3;
71858;PMS5003;59713;50.866;4.324;2023-04-01T05:18:31;8;5;
71858;PMS5003;59713;50.866;4.324;2023-04-01T05:19:31;8;5;
71858;PMS5003;59713;50.866;4.324;2023-04-01T05:20:31;8;5;
71858;PMS5003;59713;50.866;4.324;2023-04-01T05:21:31;5;4;
71858;PMS5003;59713;50.866;4.324;2023-04-01T05:22:31;5;4;
71858;PMS5003;59713;50.866;4.324;2023-04-01T05:23:31;5;4;
71858;PMS5003;59713;50.866;4.324;2023-04-01T05:24:31;5;5;
71858;PMS5003;59713;50.866;4.324;2023-04-01T05:24:31;5;5;
71858;PMS5003;59713;50.866;4.324;2023-04-01T05:25:31;5;5;
71858;PMS5003;59713;50.866;4.324;2023-04-01T05:26:31;5;5;
71858;PMS5003;59713;50.866;4.324;2023-04-01T05:27:31;4;3;
71858;PMS5003;59713;50.866;4.324;2023-04-01T05:28:31;4;3;
71858;PMS5003;59713;50.866;4.324;2023-04-01T05:29:31;4;3;
71858;PMS5003;59713;50.866;4.324;2023-04-01T05:30:31;6;3;
71858;PMS5003;59713;50.866;4.324;2023-04-01T05:31:31;6;3;
71858;PMS5003;59713;50.866;4.324;2023-04-01T05:32:31;6;3;
71858;PMS5003;59713;50.866;4.324;2023-04-01T05:33:31;4;4;
71858;PMS5003;59713;50.866;4.324;2023-04-01T05:33:31;4;4;
71858;PMS5003;59713;50.866;4.324;2023-04-01T05:34:31;4;4;
71858;PMS5003;59713;50.866;4.324;2023-04-01T05:35:31;4;4;
71858;PMS5003;59713;50.866;4.324;2023-04-01T05:36:31;4;4;
71858;PMS5003;59713;50.866;4.324;2023-04-01T05:37:32;4;4;
71858;PMS5003;59713;50.866;4.324;2023-04-01T05:38:31;4;4;
71858;PMS5003;59713;50.866;4.324;2023-04-01T05:39:31;3;2;
71858;PMS5003;59713;50.866;4.324;2023-04-01T05:40:32;3;2;
71858;PMS5003;59713;50.866;4.324;2023-04-01T05:41:31;3;2;
71858;PMS5003;59713;50.866;4.324;2023-04-01T05:42:31;6;5;
71858;PMS5003;59713;50.866;4.324;2023-04-01T05:42:31;6;5;
71858;PMS5003;59713;50.866;4.324;2023-04-01T05:43:35;6;5;
71858;PMS5003;59713;50.866;4.324;2023-04-01T05:44:31;6;5;
71858;PMS5003;59713;50.866;4.324;2023-04-01T05:45:31;6;5;
71858;PMS5003;59713;50.866;4.324;2023-04-01T05:46:31;6;5;
71858;PMS5003;59713;50.866;4.324;2023-04-01T05:47:31;6;5;
71858;PMS5003;59713;50.866;4.324;2023-04-01T05:48:33;9;6;
71858;PMS5003;59713;50.866;4.324;2023-04-01T05:49:32;9;6;
71858;PMS5003;59713;50.866;4.324;2023-04-01T05:50:31;9;6;
71858;PMS5003;59713;50.866;4.324;2023-04-01T05:51:31;5;5;
71858;PMS5003;59713;50.866;4.324;2023-04-01T05:52:31;5;5;
71858;PMS5003;59713;50.866;4.324;2023-04-01T05:52:31;5;5;
71858;PMS5003;59713;50.866;4.324;2023-04-01T05:53:31;5;5;
71858;PMS5003;59713;50.866;4.324;2023-04-01T05:54:31;7;5;
71858;PMS5003;59713;50.866;4.324;2023-04-01T05:55:31;7;5;
71858;PMS5003;59713;50.866;4.324;2023-04-01T05:56:31;7;5;
71858;PMS5003;59713;50.866;4.324;2023-04-01T05:57:31;4;4;
71858;PMS5003;59713;50.866;4.324;2023-04-01T05:58:31;4;4;
71858;PMS5003;59713;50.866;4.324;2023-04-01T05:59:31;4;4;
71858;PMS5003;59713;50.866;4.324;2023-04-01T06:00:31;8;8;
71858;PMS5003;59713;50.866;4.324;2023-04-01T06:01:31;8;8;
71858;PMS5003;59713;50.866;4.324;2023-04-01T06:01:31;8;8;
71858;PMS5003;59713;50.866;4.324;2023-04-01T06:02:31;8;8;
71858;PMS5003;59713;50.866;4.324;2023-04-01T06:03:31;9;7;
71858;PMS5003;59713;50.866;4.324;2023-04-01T06:04:32;9;7;
71858;PMS5003;59713;50.866;4.324;2023-04-01T06:05:35;9;7;
71858;PMS5003;59713;50.866;4.324;2023-04-01T06:06:31;8;7;
71858;PMS5003;59713;50.866;4.324;2023-04-01T06:07:31;8;7;
71858;PMS5003;59713;50.866;4.324;2023-04-01T06:08:31;8;7;
71858;PMS5003;59713;50.866;4.324;2023-04-01T06:09:31;7;7;
71858;PMS5003;59713;50.866;4.324;2023-04-01T06:10:34;7;7;
71858;PMS5003;59713;50.866;4.324;2023-04-01T06:10:34;7;7;
71858;PMS5003;59713;50.866;4.324;2023-04-01T06:11:32;7;7;